Time;durP1;ratioP1;P1;durP2;ratioP2;P2;SDS_P1;SDS_P2;PMS_P1;PMS_P2;Temp;Humidity;BMP_temperature;BMP_pressure;BME280_temperature;BME280_humidity;BME280_pressure;Samples;Min_cycle;Max_cycle;Signal;HPM_P1;HPM_P2
2024/02/20 00:00:48;;;;;;;3.95;2.80;;;23.50;48.00;;;;;;6177038;28;81240;-58
2024/02/20 00:03:48;;;;;;;5.63;3.00;;;23.50;47.90;;;;;;6177440;28;81190;-58
2024/02/20 00:06:49;;;;;;;5.22;2.95;;;23.50;47.80;;;;;;6170779;28;83099;-58
2024/02/20 00:09:50;;;;;;;5.45;2.80;;;23.50;47.70;;;;;;6175122;28;80432;-57
2024/02/20 00:12:50;;;;;;;5.55;2.80;;;23.50;47.60;;;;;;6156693;28;80694;-57
2024/02/20 00:15:51;;;;;;;5.63;2.80;;;23.50;47.60;;;;;;6153681;28;80806;-58
2024/02/20 00:18:52;;;;;;;4.90;2.75;;;23.50;47.40;;;;;;6154195;28;82004;-58
2024/02/20 00:21:52;;;;;;;5.20;3.17;;;23.60;47.50;;;;;;6153643;28;80605;-58
2024/02/20 00:24:53;;;;;;;4.03;2.80;;;23.50;47.40;;;;;;6154541;28;81257;-58
2024/02/20 00:27:53;;;;;;;3.75;2.60;;;23.50;47.30;;;;;;6178088;28;80570;-59
2024/02/20 00:30:54;;;;;;;3.78;2.45;;;23.50;47.20;;;;;;6171288;28;80156;-59
2024/02/20 00:33:54;;;;;;;5.05;2.97;;;23.50;47.30;;;;;;6175202;28;80584;-61
2024/02/20 00:36:55;;;;;;;8.45;3.22;;;23.50;47.20;;;;;;6173107;28;80529;-61
2024/02/20 00:39:56;;;;;;;4.97;3.00;;;23.60;47.20;;;;;;6176589;28;80805;-60
2024/02/20 00:42:57;;;;;;;4.45;2.67;;;23.50;47.20;;;;;;6175985;28;80715;-61
2024/02/20 00:46:00;;;;;;;4.72;3.03;;;23.50;47.20;;;;;;6174892;28;81250;-60
2024/02/20 00:49:00;;;;;;;4.18;2.42;;;23.50;47.20;;;;;;6175989;28;80970;-61
2024/02/20 00:52:02;;;;;;;4.35;2.75;;;23.50;47.20;;;;;;6176238;28;80782;-60
2024/02/20 00:55:03;;;;;;;3.78;2.58;;;23.50;47.20;;;;;;6174719;28;80342;-61
2024/02/20 00:58:04;;;;;;;3.33;2.08;;;23.50;47.10;;;;;;6169569;28;80925;-61
2024/02/20 01:01:09;;;;;;;3.92;2.28;;;23.50;47.10;;;;;;6155763;28;80971;-62
2024/02/20 01:04:11;;;;;;;3.17;2.10;;;23.50;47.10;;;;;;6160037;28;82092;-62
2024/02/20 01:07:11;;;;;;;3.47;1.88;;;23.50;47.10;;;;;;6177087;28;81640;-62
2024/02/20 01:10:12;;;;;;;3.97;2.20;;;23.50;47.10;;;;;;6167156;28;80823;-62
2024/02/20 01:13:13;;;;;;;5.28;2.90;;;23.50;47.10;;;;;;6165436;28;80661;-61
2024/02/20 01:16:13;;;;;;;3.63;2.47;;;23.40;47.10;;;;;;6152377;28;81064;-59
2024/02/20 01:19:14;;;;;;;4.43;2.63;;;23.40;47.20;;;;;;6153008;28;80454;-59
2024/02/20 01:22:14;;;;;;;3.70;2.13;;;23.40;47.10;;;;;;6151892;28;80980;-59
2024/02/20 01:25:15;;;;;;;3.97;2.55;;;23.50;47.10;;;;;;6156527;28;82546;-60
2024/02/20 01:28:15;;;;;;;3.25;2.05;;;23.50;47.10;;;;;;6175356;28;81522;-61
2024/02/20 01:31:16;;;;;;;3.05;1.98;;;23.50;47.00;;;;;;6175157;28;80355;-60
2024/02/20 01:34:16;;;;;;;2.95;1.65;;;23.50;47.00;;;;;;6176948;28;84247;-60
2024/02/20 01:37:17;;;;;;;3.72;1.90;;;23.50;47.00;;;;;;6162752;28;81022;-61
2024/02/20 01:40:18;;;;;;;3.47;2.00;;;23.50;47.00;;;;;;6176528;28;81453;-60
2024/02/20 01:43:18;;;;;;;3.50;1.95;;;23.50;47.00;;;;;;6176887;28;80475;-60
2024/02/20 01:46:21;;;;;;;2.72;1.80;;;23.50;47.00;;;;;;6176107;28;81041;-58
2024/02/20 01:49:22;;;;;;;2.45;1.83;;;23.40;47.00;;;;;;6163494;28;80964;-59
2024/02/20 01:52:22;;;;;;;3.15;1.75;;;23.40;47.00;;;;;;6176583;28;80953;-59
2024/02/20 01:55:23;;;;;;;3.10;2.15;;;23.40;47.10;;;;;;6177038;28;81793;-58
2024/02/20 01:58:27;;;;;;;3.72;1.73;;;23.30;46.90;;;;;;6157842;28;80600;-59
2024/02/20 02:01:27;;;;;;;3.35;1.95;;;23.30;47.50;;;;;;6157059;28;80911;-59
2024/02/20 02:04:28;;;;;;;3.13;1.60;;;23.30;46.90;;;;;;6168593;28;80415;-59
2024/02/20 02:07:28;;;;;;;3.03;1.83;;;23.40;46.80;;;;;;6175828;28;82465;-59
2024/02/20 02:10:29;;;;;;;3.70;1.85;;;23.40;46.90;;;;;;6174707;28;80334;-58
2024/02/20 02:13:29;;;;;;;2.97;1.73;;;23.40;46.90;;;;;;6152087;28;80680;-59
2024/02/20 02:16:30;;;;;;;4.68;1.77;;;23.50;46.80;;;;;;6165959;28;80433;-60
2024/02/20 02:19:30;;;;;;;2.25;1.63;;;23.50;46.60;;;;;;6157425;28;82744;-59
2024/02/20 02:22:31;;;;;;;3.00;1.60;;;23.40;46.40;;;;;;6155613;28;81006;-62
2024/02/20 02:25:31;;;;;;;3.78;1.73;;;23.40;46.30;;;;;;6175014;28;81122;-60
2024/02/20 02:28:32;;;;;;;2.22;1.63;;;23.40;46.30;;;;;;6177954;28;81321;-59
2024/02/20 02:31:32;;;;;;;3.03;1.65;;;23.40;46.40;;;;;;6170304;28;80268;-59
2024/02/20 02:34:33;;;;;;;2.60;1.90;;;23.40;46.40;;;;;;6178753;28;80927;-59
2024/02/20 02:37:34;;;;;;;2.08;1.40;;;23.40;46.30;;;;;;6178847;28;80258;-60
2024/02/20 02:40:35;;;;;;;3.38;1.85;;;23.40;46.40;;;;;;6175227;28;80942;-59
2024/02/20 02:43:35;;;;;;;2.22;1.35;;;23.40;46.40;;;;;;6161823;28;80734;-59
2024/02/20 02:46:36;;;;;;;3.42;1.77;;;23.30;46.30;;;;;;6162242;28;80120;-59
2024/02/20 02:49:36;;;;;;;2.33;1.33;;;23.40;46.30;;;;;;6162360;28;81501;-58
2024/02/20 02:52:38;;;;;;;1.75;1.20;;;23.40;46.30;;;;;;6158537;28;80933;-59
2024/02/20 02:55:38;;;;;;;2.38;1.30;;;23.40;46.90;;;;;;6168215;28;80868;-59
2024/02/20 02:58:40;;;;;;;2.00;1.20;;;23.40;46.30;;;;;;6158897;28;81004;-58
2024/02/20 03:01:40;;;;;;;1.95;1.33;;;23.40;46.30;;;;;;6154024;28;80956;-58
2024/02/20 03:04:41;;;;;;;2.30;1.38;;;23.40;46.30;;;;;;6156114;28;81653;-58
2024/02/20 03:07:41;;;;;;;2.95;1.33;;;23.40;46.30;;;;;;6156131;28;81956;-57
2024/02/20 03:10:42;;;;;;;2.00;1.30;;;23.40;46.30;;;;;;6168234;28;81203;-57
2024/02/20 03:13:42;;;;;;;1.90;1.25;;;23.40;46.30;;;;;;6156797;28;80404;-58
2024/02/20 03:16:43;;;;;;;1.70;1.05;;;23.40;46.30;;;;;;6178440;28;80271;-58
2024/02/20 03:19:44;;;;;;;2.42;1.08;;;23.40;46.30;;;;;;6166726;28;80843;-59
2024/02/20 03:22:44;;;;;;;1.73;1.10;;;23.40;46.30;;;;;;6177837;28;80633;-58
2024/02/20 03:25:45;;;;;;;9.75;1.08;;;23.40;46.20;;;;;;6174759;28;80551;-59
2024/02/20 03:28:45;;;;;;;1.52;1.20;;;23.40;46.20;;;;;;6177113;28;80632;-60
2024/02/20 03:31:46;;;;;;;1.88;1.13;;;23.40;46.20;;;;;;6169546;28;80414;-59
2024/02/20 03:34:46;;;;;;;1.38;0.90;;;23.40;46.20;;;;;;6178470;28;82088;-59
2024/02/20 03:37:48;;;;;;;1.38;1.25;;;23.40;46.20;;;;;;6177935;28;81375;-57
2024/02/20 03:40:49;;;;;;;1.77;1.10;;;23.40;46.20;;;;;;6179287;28;80457;-57
2024/02/20 03:43:49;;;;;;;1.63;1.10;;;23.40;46.20;;;;;;6156972;28;80421;-57
2024/02/20 03:46:50;;;;;;;1.85;0.95;;;23.40;46.20;;;;;;6149398;28;83428;-59
2024/02/20 03:49:51;;;;;;;1.48;1.08;;;23.40;46.50;;;;;;6153572;28;80757;-57
2024/02/20 03:52:51;;;;;;;2.45;1.45;;;23.40;46.20;;;;;;6170911;28;80984;-59
2024/02/20 03:55:52;;;;;;;2.35;1.10;;;23.40;46.30;;;;;;6167218;28;81001;-57
2024/02/20 03:58:53;;;;;;;1.45;0.80;;;23.40;46.30;;;;;;6166566;28;80879;-60
2024/02/20 04:01:53;;;;;;;2.58;1.45;;;23.40;46.30;;;;;;6154207;28;81999;-57
2024/02/20 04:04:54;;;;;;;1.92;1.05;;;23.40;46.40;;;;;;6166261;28;80557;-60
2024/02/20 04:07:55;;;;;;;2.25;1.00;;;23.40;46.40;;;;;;6154883;28;82044;-59
2024/02/20 04:10:55;;;;;;;2.03;0.88;;;23.30;46.10;;;;;;6154149;28;80721;-58
2024/02/20 04:13:56;;;;;;;1.13;0.80;;;23.40;46.20;;;;;;6158184;28;81004;-59
2024/02/20 04:16:56;;;;;;;1.00;0.90;;;23.40;46.30;;;;;;6156454;28;81597;-59
2024/02/20 04:19:57;;;;;;;1.17;1.00;;;23.40;46.30;;;;;;6156542;28;83501;-59
2024/02/20 04:22:57;;;;;;;2.13;0.80;;;23.50;46.00;;;;;;6155774;28;80529;-59
2024/02/20 04:25:58;;;;;;;1.63;0.70;;;23.50;46.10;;;;;;6156330;28;80622;-59
2024/02/20 04:28:58;;;;;;;1.65;0.88;;;23.50;46.30;;;;;;6166068;28;82831;-59
2024/02/20 04:31:59;;;;;;;1.58;0.93;;;23.50;46.00;;;;;;6157965;28;82500;-60
2024/02/20 04:34:59;;;;;;;1.85;1.05;;;23.50;45.90;;;;;;6157739;28;80434;-60
2024/02/20 04:38:00;;;;;;;2.55;0.98;;;23.60;45.80;;;;;;6156541;28;80503;-60
2024/02/20 04:41:00;;;;;;;1.80;0.80;;;23.60;45.90;;;;;;6160696;28;80643;-60
2024/02/20 04:44:01;;;;;;;1.45;0.90;;;23.60;45.60;;;;;;6171160;28;80584;-59
2024/02/20 04:47:02;;;;;;;1.05;0.90;;;23.70;45.60;;;;;;6167155;28;83551;-62
2024/02/20 04:50:03;;;;;;;1.80;1.08;;;23.70;45.60;;;;;;6169522;28;81043;-63
2024/02/20 04:53:04;;;;;;;1.13;0.70;;;23.70;46.00;;;;;;6158256;28;80671;-62
2024/02/20 04:56:05;;;;;;;1.00;0.90;;;23.70;45.70;;;;;;6175880;28;80181;-61
2024/02/20 04:59:05;;;;;;;0.82;0.70;;;23.70;45.60;;;;;;6164294;28;80670;-62
2024/02/20 05:02:07;;;;;;;2.35;1.20;;;23.70;45.40;;;;;;6165632;28;81847;-62
2024/02/20 05:05:07;;;;;;;1.15;0.93;;;23.80;45.30;;;;;;6160288;28;80684;-61
2024/02/20 05:08:08;;;;;;;1.60;1.10;;;23.80;45.30;;;;;;6160714;28;81334;-56
2024/02/20 05:11:08;;;;;;;1.40;0.80;;;23.80;45.30;;;;;;6162060;28;83254;-56
2024/02/20 05:14:09;;;;;;;1.65;1.00;;;23.80;45.20;;;;;;6161737;28;80865;-52
2024/02/20 05:17:09;;;;;;;2.03;1.00;;;23.80;45.20;;;;;;6160044;28;82627;-51
2024/02/20 05:20:11;;;;;;;1.58;0.93;;;23.80;45.00;;;;;;6155419;28;80643;-48
2024/02/20 05:23:11;;;;;;;0.88;0.70;;;23.80;45.30;;;;;;6163205;28;86789;-47
2024/02/20 05:26:12;;;;;;;1.13;0.80;;;23.80;45.40;;;;;;6157305;28;82395;-48
2024/02/20 05:29:12;;;;;;;1.88;1.10;;;23.80;45.40;;;;;;6167718;28;80524;-58
2024/02/20 05:32:13;;;;;;;1.92;1.05;;;23.80;45.90;;;;;;6161232;28;80391;-60
2024/02/20 05:35:13;;;;;;;0.60;0.60;;;23.90;46.20;;;;;;6169948;28;80361;-57
2024/02/20 05:38:14;;;;;;;3.35;0.90;;;23.90;46.40;;;;;;6165115;28;80221;-62
2024/02/20 05:41:14;;;;;;;2.08;0.85;;;23.90;46.60;;;;;;6160507;28;80206;-64
2024/02/20 05:44:15;;;;;;;3.10;0.90;;;24.00;46.80;;;;;;6162801;28;80899;-57
2024/02/20 05:47:16;;;;;;;1.60;1.05;;;24.00;46.80;;;;;;6153688;28;83076;-55
2024/02/20 05:50:16;;;;;;;3.15;1.08;;;23.90;46.70;;;;;;6150307;28;82057;-51
2024/02/20 05:53:17;;;;;;;2.53;0.98;;;23.90;46.60;;;;;;6159260;28;81223;-56
2024/02/20 05:56:18;;;;;;;4.13;1.10;;;23.90;46.80;;;;;;6164554;28;80692;-54
2024/02/20 05:59:18;;;;;;;1.15;0.80;;;23.90;47.00;;;;;;6163677;28;81442;-56
2024/02/20 06:02:19;;;;;;;4.20;1.17;;;23.90;46.80;;;;;;6169074;28;80434;-52
2024/02/20 06:05:19;;;;;;;1.52;0.88;;;24.00;46.90;;;;;;6169177;28;80453;-64
2024/02/20 06:08:21;;;;;;;9.25;0.90;;;24.00;46.70;;;;;;6168178;28;80588;-65
2024/02/20 06:11:22;;;;;;;0.90;0.70;;;23.90;46.90;;;;;;6164091;28;81558;-65
2024/02/20 06:14:23;;;;;;;3.30;1.25;;;23.90;46.60;;;;;;6159637;28;80557;-65
2024/02/20 06:17:23;;;;;;;1.83;1.13;;;23.90;46.60;;;;;;6168449;28;80520;-65
2024/02/20 06:20:24;;;;;;;1.90;1.33;;;23.90;46.50;;;;;;6167787;28;80836;-65
2024/02/20 06:23:25;;;;;;;2.33;1.23;;;23.90;46.40;;;;;;6161917;28;81083;-59
2024/02/20 06:26:25;;;;;;;3.08;1.58;;;23.90;46.50;;;;;;6163679;28;81001;-57
2024/02/20 06:29:26;;;;;;;2.00;1.60;;;23.80;45.50;;;;;;6159463;28;81337;-58
2024/02/20 06:32:26;;;;;;;2.80;1.40;;;23.50;44.20;;;;;;6173258;28;80578;-58
2024/02/20 06:35:27;;;;;;;4.15;2.13;;;23.30;43.80;;;;;;6168268;28;80624;-58
2024/02/20 06:38:33;;;;;;;2.13;1.60;;;23.10;43.70;;;;;;6168178;28;80351;-58
2024/02/20 06:41:34;;;;;;;5.20;2.22;;;23.00;43.70;;;;;;6164924;28;80921;-49
2024/02/20 06:44:35;;;;;;;3.63;1.90;;;22.90;43.70;;;;;;6167928;28;80755;-51
2024/02/20 06:47:35;;;;;;;2.47;1.85;;;22.70;43.70;;;;;;6167226;28;80933;-52
2024/02/20 06:50:36;;;;;;;3.17;1.75;;;22.70;44.00;;;;;;6166105;28;80429;-52
2024/02/20 06:53:36;;;;;;;3.40;2.30;;;22.60;43.90;;;;;;6162105;28;82912;-53
2024/02/20 06:56:37;;;;;;;5.82;2.20;;;22.60;44.60;;;;;;6153415;28;80566;-55
2024/02/20 06:59:37;;;;;;;2.97;1.52;;;22.80;44.60;;;;;;6162910;28;80841;-58
2024/02/20 07:02:38;;;;;;;2.10;1.55;;;22.80;44.70;;;;;;6178663;28;83051;-57
2024/02/20 07:05:38;;;;;;;2.50;1.63;;;22.90;44.80;;;;;;6178093;28;81194;-57
2024/02/20 07:08:42;;;;;;;2.55;1.58;;;22.90;44.70;;;;;;6171625;28;83188;-58
2024/02/20 07:11:43;;;;;;;3.25;1.70;;;23.00;44.70;;;;;;6160917;28;81992;-59
2024/02/20 07:14:44;;;;;;;4.45;1.70;;;23.00;44.70;;;;;;6167579;28;80742;-56
2024/02/20 07:17:44;;;;;;;3.47;1.95;;;23.00;44.80;;;;;;6167169;28;80569;-62
2024/02/20 07:20:45;;;;;;;2.10;1.50;;;23.10;45.00;;;;;;6169863;28;80248;-64
2024/02/20 07:23:45;;;;;;;5.03;1.65;;;23.10;44.90;;;;;;6168701;28;80600;-65
2024/02/20 07:26:46;;;;;;;4.13;1.77;;;23.10;44.80;;;;;;6165842;28;80990;-64
2024/02/20 07:29:48;;;;;;;2.65;1.58;;;23.20;45.10;;;;;;6169755;28;88067;-62
2024/02/20 07:32:48;;;;;;;2.17;1.67;;;23.20;44.80;;;;;;6173284;28;80267;-62
2024/02/20 07:35:49;;;;;;;2.22;1.42;;;23.20;44.80;;;;;;6169436;28;81375;-51
2024/02/20 07:38:49;;;;;;;2.80;1.65;;;23.20;44.80;;;;;;6167187;28;81637;-50
2024/02/20 07:41:50;;;;;;;2.97;2.10;;;23.20;44.80;;;;;;6170688;28;80564;-49
2024/02/20 07:44:50;;;;;;;3.47;1.70;;;23.20;44.60;;;;;;6167112;28;80534;-49
2024/02/20 07:47:51;;;;;;;2.65;1.60;;;23.30;44.60;;;;;;6170379;28;81212;-54
2024/02/20 07:50:51;;;;;;;2.90;1.73;;;23.30;44.70;;;;;;6172732;28;87606;-52
2024/02/20 07:53:52;;;;;;;2.72;2.00;;;23.30;44.50;;;;;;6173279;28;80463;-62
2024/02/20 07:56:52;;;;;;;2.65;1.65;;;23.30;44.40;;;;;;6162221;28;81275;-64
2024/02/20 07:59:53;;;;;;;2.72;1.77;;;23.30;44.40;;;;;;6168906;28;80308;-63
2024/02/20 08:02:53;;;;;;;3.38;2.13;;;23.30;44.60;;;;;;6159610;28;81420;-63
2024/02/20 08:05:54;;;;;;;2.97;1.63;;;23.30;44.30;;;;;;6165850;28;80661;-60
2024/02/20 08:08:54;;;;;;;2.60;1.83;;;23.30;44.30;;;;;;6163515;28;82741;-62
2024/02/20 08:11:55;;;;;;;2.55;1.70;;;23.30;44.30;;;;;;6167879;28;80497;-56
2024/02/20 08:14:55;;;;;;;3.97;1.60;;;23.30;44.40;;;;;;6164061;28;80713;-57
2024/02/20 08:17:56;;;;;;;4.38;2.17;;;23.30;44.50;;;;;;6170288;28;80603;-58
2024/02/20 08:20:57;;;;;;;4.93;1.55;;;23.30;44.30;;;;;;6158842;28;80335;-59
2024/02/20 08:23:58;;;;;;;2.80;1.85;;;23.30;44.40;;;;;;6170570;28;80371;-58
2024/02/20 08:27:01;;;;;;;3.00;1.63;;;23.30;44.20;;;;;;6167888;28;80416;-56
2024/02/20 08:30:01;;;;;;;2.70;2.03;;;23.30;44.80;;;;;;6167122;28;81996;-59
2024/02/20 08:33:02;;;;;;;2.67;1.88;;;23.40;45.00;;;;;;6171545;28;80236;-57
2024/02/20 08:36:03;;;;;;;2.70;1.70;;;23.40;44.70;;;;;;6172852;28;81160;-57
2024/02/20 08:39:04;;;;;;;2.15;1.60;;;23.40;44.70;;;;;;6165270;28;82175;-58
2024/02/20 08:42:04;;;;;;;3.58;1.77;;;23.50;45.00;;;;;;6162703;28;80984;-56
2024/02/20 08:45:05;;;;;;;1.38;1.15;;;23.50;45.20;;;;;;6165442;28;81752;-59
2024/02/20 08:48:05;;;;;;;2.85;1.83;;;23.50;45.00;;;;;;6168166;28;80679;-66
2024/02/20 08:51:06;;;;;;;3.28;1.40;;;23.50;44.80;;;;;;6168895;28;80557;-66
2024/02/20 08:54:06;;;;;;;2.95;1.42;;;23.50;45.20;;;;;;6158347;28;80777;-66
2024/02/20 08:57:07;;;;;;;2.58;1.63;;;23.60;45.20;;;;;;6153976;28;81101;-65
2024/02/20 09:00:11;;;;;;;4.28;1.75;;;23.60;44.90;;;;;;6153297;28;80356;-65
2024/02/20 09:03:12;;;;;;;2.58;1.30;;;23.60;45.00;;;;;;6159960;28;80650;-65
2024/02/20 09:06:13;;;;;;;3.25;1.35;;;23.60;44.70;;;;;;6167466;28;82634;-65
2024/02/20 09:09:16;;;;;;;2.45;1.45;;;23.60;44.90;;;;;;6167953;28;80617;-63
2024/02/20 09:12:19;;;;;;;4.55;1.80;;;23.60;44.80;;;;;;6172494;28;80865;-65
2024/02/20 09:15:19;;;;;;;3.40;2.03;;;23.70;45.60;;;;;;6163137;28;81016;-64
2024/02/20 09:18:20;;;;;;;2.72;1.48;;;23.70;44.70;;;;;;6161750;28;80409;-65
2024/02/20 09:21:20;;;;;;;2.92;1.60;;;23.70;44.60;;;;;;6167237;28;80619;-67
2024/02/20 09:24:21;;;;;;;2.88;1.70;;;23.70;44.30;;;;;;6171042;28;81191;-67
2024/02/20 09:27:21;;;;;;;2.95;1.70;;;23.70;44.70;;;;;;6164443;28;82940;-66
2024/02/20 09:30:22;;;;;;;3.00;1.92;;;23.70;44.20;;;;;;6165017;28;80986;-67
2024/02/20 09:33:22;;;;;;;4.03;1.65;;;23.70;44.30;;;;;;6164987;28;80853;-65
2024/02/20 09:36:23;;;;;;;2.83;1.67;;;23.70;44.30;;;;;;6173921;28;80987;-66
2024/02/20 09:39:25;;;;;;;3.10;1.60;;;23.70;44.30;;;;;;6172916;28;80743;-66
2024/02/20 09:42:27;;;;;;;3.30;1.63;;;23.80;44.30;;;;;;6172488;28;81765;-66
2024/02/20 09:45:28;;;;;;;2.50;1.42;;;23.80;44.40;;;;;;6171498;28;81837;-66
2024/02/20 09:48:30;;;;;;;2.78;1.60;;;23.80;44.30;;;;;;6173449;28;81001;-68
2024/02/20 09:51:30;;;;;;;2.33;1.42;;;23.80;44.40;;;;;;6170598;28;80628;-66
2024/02/20 09:54:33;;;;;;;2.08;1.48;;;23.80;44.20;;;;;;6173442;28;80920;-66
2024/02/20 09:57:33;;;;;;;2.38;1.45;;;23.80;44.50;;;;;;6150942;28;80780;-65
2024/02/20 10:00:34;;;;;;;2.35;1.60;;;23.80;44.50;;;;;;6161188;28;80564;-60
2024/02/20 10:03:36;;;;;;;2.55;1.50;;;23.90;44.50;;;;;;6153677;28;80749;-50
2024/02/20 10:06:36;;;;;;;2.40;1.27;;;23.90;44.40;;;;;;6149319;28;81532;-53
2024/02/20 10:09:37;;;;;;;2.53;1.60;;;23.90;44.50;;;;;;6152933;28;81733;-55
2024/02/20 10:12:39;;;;;;;2.22;1.45;;;23.90;44.40;;;;;;6153148;28;81279;-49
2024/02/20 10:15:39;;;;;;;2.65;1.42;;;23.90;44.40;;;;;;6153239;28;80811;-53
2024/02/20 10:18:40;;;;;;;1.92;1.30;;;24.00;44.40;;;;;;6151762;28;80589;-54
2024/02/20 10:21:40;;;;;;;2.08;1.45;;;24.00;44.50;;;;;;6163276;28;80894;-55
2024/02/20 10:24:42;;;;;;;4.70;1.30;;;24.00;44.40;;;;;;6158406;28;81499;-53
2024/02/20 10:27:43;;;;;;;1.77;1.33;;;24.00;44.60;;;;;;6166715;28;80955;-54
2024/02/20 10:30:44;;;;;;;2.33;1.40;;;23.90;44.60;;;;;;6168000;28;81222;-53
2024/02/20 10:33:44;;;;;;;1.88;1.30;;;24.00;44.60;;;;;;6159454;28;81122;-55
2024/02/20 10:36:45;;;;;;;2.47;1.80;;;24.00;44.50;;;;;;6169713;28;80549;-56
2024/02/20 10:39:45;;;;;;;1.70;1.55;;;24.00;44.60;;;;;;6165459;28;80499;-52
2024/02/20 10:42:46;;;;;;;3.08;1.90;;;24.00;44.90;;;;;;6166424;28;80828;-50
2024/02/20 10:45:46;;;;;;;2.50;1.63;;;24.00;44.90;;;;;;6164415;28;80358;-51
2024/02/20 10:48:47;;;;;;;2.42;1.50;;;23.90;45.00;;;;;;6159167;28;81357;-51
2024/02/20 10:51:47;;;;;;;2.50;1.45;;;24.00;44.90;;;;;;6160584;28;84774;-50
2024/02/20 10:54:48;;;;;;;2.00;1.30;;;24.00;44.90;;;;;;6160090;28;80326;-51
2024/02/20 10:57:48;;;;;;;2.13;1.23;;;23.90;44.80;;;;;;6159806;28;81516;-54
2024/02/20 11:00:49;;;;;;;1.48;1.30;;;24.00;44.70;;;;;;6166384;28;80429;-53
2024/02/20 11:03:49;;;;;;;1.90;1.50;;;24.00;45.00;;;;;;6164501;28;80951;-53
2024/02/20 11:06:50;;;;;;;3.83;1.50;;;23.90;44.80;;;;;;6165851;28;81052;-52
2024/02/20 11:09:50;;;;;;;2.58;1.58;;;23.90;45.00;;;;;;6168940;28;80724;-52
2024/02/20 11:12:51;;;;;;;2.95;1.50;;;23.90;45.10;;;;;;6168772;28;81466;-53
2024/02/20 11:15:52;;;;;;;2.25;1.50;;;23.90;45.20;;;;;;6170987;28;80821;-52
2024/02/20 11:18:52;;;;;;;1.98;1.65;;;23.90;45.20;;;;;;6167384;28;80669;-52
2024/02/20 11:21:53;;;;;;;4.97;1.92;;;23.80;45.20;;;;;;6171926;28;82150;-53
2024/02/20 11:24:53;;;;;;;2.35;1.60;;;23.90;45.20;;;;;;6172143;28;81018;-53
2024/02/20 11:27:54;;;;;;;4.85;1.90;;;23.90;45.40;;;;;;6174682;28;80405;-54
2024/02/20 11:30:54;;;;;;;1.95;1.40;;;23.90;45.20;;;;;;6169758;28;80505;-53
2024/02/20 11:33:55;;;;;;;2.00;1.30;;;23.80;45.30;;;;;;6167701;28;80508;-60
2024/02/20 11:36:55;;;;;;;1.92;1.50;;;23.90;45.40;;;;;;6175842;28;80473;-62
2024/02/20 11:39:57;;;;;;;2.25;1.58;;;23.90;45.50;;;;;;6169285;28;86454;-61
2024/02/20 11:42:57;;;;;;;2.75;1.70;;;23.90;45.60;;;;;;6162668;28;81021;-61
2024/02/20 11:45:59;;;;;;;2.88;1.83;;;23.80;45.40;;;;;;6176807;28;80367;-62
2024/02/20 11:48:59;;;;;;;4.05;1.80;;;23.80;45.60;;;;;;6170186;28;81816;-64
2024/02/20 11:52:00;;;;;;;3.25;1.80;;;23.80;45.70;;;;;;6173723;28;80981;-60
2024/02/20 11:55:00;;;;;;;5.20;2.15;;;23.80;45.90;;;;;;6171164;28;80629;-61
2024/02/20 11:58:01;;;;;;;5.43;1.98;;;23.80;45.60;;;;;;6168175;28;81407;-61
2024/02/20 12:01:04;;;;;;;3.25;2.25;;;23.80;46.00;;;;;;6170459;28;80436;-62
2024/02/20 12:04:04;;;;;;;2.85;1.95;;;23.80;45.70;;;;;;6173199;28;80284;-63
2024/02/20 12:07:05;;;;;;;3.72;2.15;;;23.80;45.60;;;;;;6170237;28;81015;-63
2024/02/20 12:10:05;;;;;;;2.90;1.67;;;23.80;45.70;;;;;;6172745;28;82190;-63
2024/02/20 12:13:06;;;;;;;3.30;2.15;;;23.80;45.50;;;;;;6163444;28;80600;-61
2024/02/20 12:16:06;;;;;;;4.72;2.20;;;23.70;45.60;;;;;;6177334;28;82601;-61
2024/02/20 12:19:07;;;;;;;5.85;2.20;;;23.80;45.70;;;;;;6151623;28;80722;-62
2024/02/20 12:22:08;;;;;;;3.30;1.77;;;23.80;45.60;;;;;;6154462;28;80642;-61
2024/02/20 12:25:08;;;;;;;4.60;2.28;;;23.80;45.60;;;;;;6153581;28;80350;-61
2024/02/20 12:28:10;;;;;;;5.55;1.95;;;23.80;45.70;;;;;;6149880;28;80857;-64
2024/02/20 12:31:11;;;;;;;3.72;2.17;;;23.80;45.60;;;;;;6150924;28;80718;-63
2024/02/20 12:34:12;;;;;;;4.25;2.17;;;23.80;45.60;;;;;;6148837;28;81142;-63
2024/02/20 12:37:12;;;;;;;3.35;1.90;;;23.80;45.50;;;;;;6156589;28;80226;-63
2024/02/20 12:40:16;;;;;;;3.75;1.98;;;23.80;45.60;;;;;;6155656;28;80325;-63
2024/02/20 12:43:18;;;;;;;3.92;2.13;;;23.70;45.80;;;;;;6179354;28;84715;-61
2024/02/20 12:46:19;;;;;;;4.40;2.33;;;23.80;45.80;;;;;;6145847;28;81577;-63
2024/02/20 12:49:19;;;;;;;5.40;2.33;;;23.80;45.70;;;;;;6146411;28;80634;-64
2024/02/20 12:52:20;;;;;;;3.50;2.30;;;23.70;45.70;;;;;;6140852;28;80127;-62
2024/02/20 12:55:21;;;;;;;2.83;1.98;;;23.70;45.80;;;;;;6154299;28;81880;-62
2024/02/20 12:58:22;;;;;;;2.58;1.83;;;23.80;45.80;;;;;;6145706;28;81580;-62
2024/02/20 13:01:22;;;;;;;3.83;2.28;;;23.70;45.80;;;;;;6145301;28;80812;-62
2024/02/20 13:04:23;;;;;;;4.15;1.95;;;23.70;45.90;;;;;;6154713;28;80263;-63
2024/02/20 13:07:23;;;;;;;8.32;3.00;;;23.70;45.90;;;;;;6154521;28;80324;-60
2024/02/20 13:10:26;;;;;;;8.95;2.97;;;23.70;46.00;;;;;;6155160;28;81184;-60
2024/02/20 13:13:26;;;;;;;5.70;2.10;;;23.70;45.80;;;;;;6145995;28;88285;-61
2024/02/20 13:16:27;;;;;;;6.40;3.03;;;23.60;45.50;;;;;;6137586;28;80622;-59
2024/02/20 13:19:27;;;;;;;6.97;3.03;;;23.60;45.20;;;;;;6172248;28;81017;-60
2024/02/20 13:22:29;;;;;;;5.38;2.42;;;23.50;44.90;;;;;;6149792;28;82350;-60
2024/02/20 13:25:30;;;;;;;3.22;2.38;;;23.40;44.60;;;;;;6142855;28;80526;-60
2024/02/20 13:28:31;;;;;;;4.38;2.80;;;23.30;44.60;;;;;;6148067;28;80476;-59
2024/02/20 13:31:31;;;;;;;9.70;3.13;;;23.30;44.60;;;;;;6149088;28;80744;-60
2024/02/20 13:34:32;;;;;;;5.22;2.70;;;23.30;44.60;;;;;;6149731;28;80958;-61
2024/02/20 13:37:33;;;;;;;4.43;2.85;;;23.20;44.40;;;;;;6129747;28;86277;-57
2024/02/20 13:40:33;;;;;;;4.30;2.78;;;23.20;44.20;;;;;;6136197;28;80726;-58
2024/02/20 13:43:34;;;;;;;5.60;2.78;;;23.10;44.10;;;;;;6144214;28;80412;-61
2024/02/20 13:46:34;;;;;;;3.10;2.47;;;23.10;44.40;;;;;;6146403;28;80901;-58
2024/02/20 13:49:36;;;;;;;5.97;3.05;;;23.10;44.20;;;;;;6145508;28;80655;-59
2024/02/20 13:52:36;;;;;;;7.07;2.70;;;23.00;44.20;;;;;;6139760;28;80649;-58
2024/02/20 13:55:37;;;;;;;5.13;2.50;;;23.00;44.20;;;;;;6150118;28;81264;-61
2024/02/20 13:58:37;;;;;;;6.85;2.38;;;23.00;44.40;;;;;;6150872;28;80871;-60
2024/02/20 14:01:38;;;;;;;8.90;2.65;;;23.00;44.60;;;;;;6147534;28;80618;-57
2024/02/20 14:04:38;;;;;;;8.23;2.25;;;22.90;44.70;;;;;;6151680;28;80504;-63
2024/02/20 14:07:39;;;;;;;4.10;2.20;;;22.90;45.00;;;;;;6138234;28;81995;-68
2024/02/20 14:10:39;;;;;;;4.80;2.67;;;23.00;45.50;;;;;;6138572;28;80471;-61
2024/02/20 14:13:40;;;;;;;3.92;2.38;;;23.00;45.20;;;;;;6155161;28;80579;-63
2024/02/20 14:16:40;;;;;;;3.17;1.83;;;23.00;45.30;;;;;;6185000;28;82747;-66
2024/02/20 14:19:41;;;;;;;4.28;2.13;;;23.00;45.20;;;;;;6157163;28;81150;-62
2024/02/20 14:22:41;;;;;;;5.60;2.20;;;23.10;45.30;;;;;;6150776;28;80424;-64
2024/02/20 14:25:42;;;;;;;4.40;2.38;;;23.10;45.40;;;;;;6155997;28;80721;-61
2024/02/20 14:28:43;;;;;;;7.00;2.85;;;23.10;45.40;;;;;;6153754;28;81755;-61
2024/02/20 14:31:43;;;;;;;5.03;2.50;;;23.10;45.20;;;;;;6143023;28;80734;-60
2024/02/20 14:34:44;;;;;;;6.75;2.40;;;23.10;45.10;;;;;;6155053;28;80798;-61
2024/02/20 14:37:44;;;;;;;4.97;2.50;;;23.10;45.00;;;;;;6147455;28;81134;-63
2024/02/20 14:40:47;;;;;;;4.70;2.75;;;23.10;44.90;;;;;;6154959;28;80199;-63
2024/02/20 14:43:47;;;;;;;4.22;2.00;;;23.10;44.70;;;;;;6149771;28;80642;-62
2024/02/20 14:46:48;;;;;;;4.63;2.55;;;23.10;44.70;;;;;;6152199;28;80628;-61
2024/02/20 14:49:48;;;;;;;4.00;2.00;;;23.10;44.80;;;;;;6136245;28;80919;-64
2024/02/20 14:52:49;;;;;;;4.65;2.70;;;23.10;44.90;;;;;;6143863;28;80973;-59
2024/02/20 14:55:50;;;;;;;6.45;2.03;;;23.10;44.80;;;;;;6149336;28;80393;-58
2024/02/20 14:58:50;;;;;;;2.15;1.58;;;23.20;44.50;;;;;;6156740;28;80743;-60
2024/02/20 15:01:51;;;;;;;3.72;1.70;;;23.10;43.90;;;;;;6138713;28;81335;-63
2024/02/20 15:04:51;;;;;;;3.08;1.48;;;23.10;44.10;;;;;;6135815;28;81117;-63
2024/02/20 15:07:52;;;;;;;2.50;1.40;;;23.20;44.40;;;;;;6143667;28;80844;-63
2024/02/20 15:10:52;;;;;;;2.35;1.48;;;23.20;44.50;;;;;;6156278;28;80773;-63
2024/02/20 15:13:54;;;;;;;1.92;1.10;;;23.30;44.50;;;;;;6155761;28;81097;-64
2024/02/20 15:16:57;;;;;;;2.25;1.27;;;23.40;44.60;;;;;;6156369;28;80443;-55
2024/02/20 15:19:57;;;;;;;5.22;1.42;;;23.40;44.70;;;;;;6152501;28;81534;-52
2024/02/20 15:22:58;;;;;;;2.10;1.48;;;23.50;44.80;;;;;;6154649;28;81020;-55
2024/02/20 15:26:02;;;;;;;2.53;1.50;;;23.60;44.80;;;;;;6155789;28;81129;-54
2024/02/20 15:29:03;;;;;;;1.58;1.20;;;23.60;44.90;;;;;;6155226;28;80187;-55
2024/02/20 15:32:03;;;;;;;2.72;1.77;;;23.60;45.00;;;;;;6148608;28;80804;-51
2024/02/20 15:35:05;;;;;;;2.20;1.48;;;23.70;45.00;;;;;;6148018;28;80098;-63
2024/02/20 15:38:06;;;;;;;2.33;1.45;;;23.70;45.00;;;;;;6152745;28;80408;-63
2024/02/20 15:41:06;;;;;;;2.90;1.38;;;23.70;45.00;;;;;;6139526;28;87320;-62